ADDS METAR Data INFO
IDs: Format: Raw Decoded Include TAF

Data at: 0844 UTC 23 Feb 2018

METAR for:EGNX (Nottingham/E Midland, --, UK)
Text:EGNX 230820Z 08005KT 5000 BR BKN028 M02/M03 Q1024
Temperature: -2.0°C ( 28°F)
Dewpoint: -3.0°C ( 27°F) [RH = 93%]
Pressure (altimeter):30.24 inches Hg (1024.0 mb)
Winds:from the E (80 degrees) at 6 MPH (5 knots; 2.6 m/s)
Visibility: 3 sm ( 5 km)
Ceiling:2800 feet AGL
Clouds: broken clouds at 2800 feet AGL
Weather:BR (mist)